Observation data for Paducah on 04/25/2019      Previous  Date  Next       Current Mesonet Observations  Soil Data  Daily Summary Page  Observations in Plain Language
KPAD 250500Z 19007KT 12/11 A2986 RMK A01 T01190106  RH  095%=      5-min Rain = 0
KPAD 250505Z 20007KT 12/10 A2986 RMK A01 T01170104  RH  095%=      5-min Rain = 0
KPAD 250510Z 20007KT 12/11 A2986 RMK A01 T01170105  RH  095%=      5-min Rain = 0
KPAD 250515Z 20007KT 12/11 A2986 RMK A01 T01180106  RH  096%=      5-min Rain = 0
KPAD 250520Z 20007KT 12/11 A2986 RMK A01 T01170105  RH  095%=      5-min Rain = 0
KPAD 250525Z 20006KT 12/10 A2986 RMK A01 T01160104  RH  096%=      5-min Rain = 0
KPAD 250530Z 21007KT 12/10 A2986 RMK A01 T01160104  RH  096%=      5-min Rain = 0
KPAD 250535Z 22007KT 12/11 A2986 RMK A01 T01180107  RH  096%=      5-min Rain = 0
KPAD 250540Z 22008KT 12/11 A2986 RMK A01 T01200109  RH  096%=      5-min Rain = 0
KPAD 250545Z 23009KT 12/11 A2985 RMK A01 T01210109  RH  096%=      5-min Rain = 0
KPAD 250550Z 23009KT 12/11 A2985 RMK A01 T01220109  RH  095%=      5-min Rain = 0
KPAD 250555Z 23009KT 12/11 A2985 RMK A01 T01230110  RH  095%=      5-min Rain = 0
KPAD 250600Z 23009KT 12/11 A2986 RMK A01 T01240109  RH  094%=      5-min Rain = 0
KPAD 250605Z 22009KT 12/11 A2985 RMK A01 T01230107  RH  093%=      5-min Rain = 0
KPAD 250610Z 23008KT 12/11 A2985 RMK A01 T01220106  RH  093%=      5-min Rain = 0
KPAD 250615Z 22008KT 12/11 A2985 RMK A01 T01210105  RH  093%=      5-min Rain = 0
KPAD 250620Z 22008KT 12/11 A2985 RMK A01 T01200105  RH  093%=      5-min Rain = 0
KPAD 250625Z 23008KT 12/11 A2985 RMK A01 T01210105  RH  093%=      5-min Rain = 0
KPAD 250630Z 22007KT 12/11 A2985 RMK A01 T01210105  RH  093%=      5-min Rain = 0
KPAD 250635Z 23008KT 12/11 A2984 RMK A01 T01210105  RH  093%=      5-min Rain = 0
KPAD 250640Z 23008KT 12/11 A2984 RMK A01 T01240108  RH  093%=      5-min Rain = 0
KPAD 250645Z 23009KT 13/11 A2984 RMK A01 T01260110  RH  093%=      5-min Rain = 0
KPAD 250650Z 23009KT 13/11 A2984 RMK A01 T01270110  RH  092%=      5-min Rain = 0
KPAD 250655Z 23010KT 13/11 A2983 RMK A01 T01290111  RH  092%=      5-min Rain = 0
KPAD 250700Z 23010KT 13/11 A2983 RMK A01 T01300110  RH  091%=      5-min Rain = 0
KPAD 250705Z 23010KT 13/11 A2983 RMK A01 T01290109  RH  091%=      5-min Rain = 0
KPAD 250710Z 23011KT 13/11 A2982 RMK A01 T01280109  RH  091%=      5-min Rain = 0
KPAD 250715Z 24010KT 13/11 A2982 RMK A01 T01280109  RH  091%=      5-min Rain = 0
KPAD 250720Z 24010KT 13/11 A2982 RMK A01 T01280109  RH  091%=      5-min Rain = 0
KPAD 250725Z 24009KT 13/11 A2982 RMK A01 T01280109  RH  091%=      5-min Rain = 0
KPAD 250730Z 25009KT 13/11 A2982 RMK A01 T01270108  RH  092%=      5-min Rain = 0
KPAD 250735Z 25009KT 13/11 A2981 RMK A01 T01280109  RH  092%=      5-min Rain = 0
KPAD 250740Z 26010KT 13/11 A2981 RMK A01 T01310111  RH  091%=      5-min Rain = 0
KPAD 250745Z 26011KT 13/11 A2981 RMK A01 T01340112  RH  090%=      5-min Rain = 0
KPAD 250750Z 27011KT 13/11 A2981 RMK A01 T01340111  RH  089%=      5-min Rain = 0
KPAD 250755Z 27010KT 14/11 A2981 RMK A01 T01350110  RH  088%=      5-min Rain = 0
KPAD 250800Z 27012KT 14/11 A2981 RMK A01 T01350110  RH  088%=      5-min Rain = 0
KPAD 250805Z 27012KT 14/11 A2981 RMK A01 T01350110  RH  088%=      5-min Rain = 0
KPAD 250810Z 28012KT 14/11 A2981 RMK A01 T01350110  RH  088%=      5-min Rain = 0
KPAD 250815Z 28011KT 14/11 A2981 RMK A01 T01370110  RH  087%=      5-min Rain = 0
KPAD 250820Z 28012KT 14/11 A2981 RMK A01 T01380110  RH  086%=      5-min Rain = 0
KPAD 250825Z 28013KT 14/11 A298 RMK A01 T01400110  RH  085%=      5-min Rain = 0
KPAD 250830Z 28013KT 14/11 A298 RMK A01 T01410109  RH  084%=      5-min Rain = 0
KPAD 250835Z 28013KT 14/11 A298 RMK A01 T01410108  RH  084%=      5-min Rain = 0
KPAD 250840Z 28013KT 14/11 A298 RMK A01 T01400108  RH  084%=      5-min Rain = 0
KPAD 250845Z 28012KT 14/11 A298 RMK A01 T01400108  RH  084%=      5-min Rain = 0
KPAD 250850Z 28012G17KT 14/11 A298 RMK A01 T01390107  RH  084%=      5-min Rain = 0
KPAD 250855Z 28013KT 14/11 A298 RMK A01 T01380107  RH  084%=      5-min Rain = 0
KPAD 250900Z 28013KT 14/11 A298 RMK A01 T01380107  RH  084%=      5-min Rain = 0
KPAD 250905Z 28012KT 14/11 A298 RMK A01 T01380106  RH  084%=      5-min Rain = 0
KPAD 250910Z 28012G17KT 14/11 A298 RMK A01 T01380106  RH  084%=      5-min Rain = 0
KPAD 250915Z 28013KT 14/11 A298 RMK A01 T01380106  RH  083%=      5-min Rain = 0
KPAD 250920Z 28013KT 14/11 A298 RMK A01 T01380105  RH  083%=      5-min Rain = 0
KPAD 250925Z 28013KT 14/11 A298 RMK A01 T01380105  RH  083%=      5-min Rain = 0
KPAD 250930Z 28012KT 14/11 A298 RMK A01 T01370105  RH  083%=      5-min Rain = 0
KPAD 250935Z 28012KT 14/10 A298 RMK A01 T01370104  RH  084%=      5-min Rain = 0
KPAD 250940Z 28012KT 14/10 A298 RMK A01 T01360104  RH  084%=      5-min Rain = 0
KPAD 250945Z 28012KT 14/10 A298 RMK A01 T01360104  RH  083%=      5-min Rain = 0
KPAD 250950Z 28013KT 14/10 A298 RMK A01 T01370104  RH  083%=      5-min Rain = 0
KPAD 250955Z 28013KT 14/10 A298 RMK A01 T01360103  RH  083%=      5-min Rain = 0
KPAD 251000Z 28013KT 14/10 A298 RMK A01 T01370103  RH  083%=      5-min Rain = 0
KPAD 251005Z 28012KT 14/10 A298 RMK A01 T01370103  RH  082%=      5-min Rain = 0
KPAD 251010Z 28011KT 14/10 A298 RMK A01 T01370103  RH  082%=      5-min Rain = 0
KPAD 251015Z 28011KT 14/10 A298 RMK A01 T01380102  RH  082%=      5-min Rain = 0
KPAD 251020Z 28011KT 14/10 A298 RMK A01 T01390102  RH  081%=      5-min Rain = 0
KPAD 251025Z 28012KT 14/10 A298 RMK A01 T01390102  RH  081%=      5-min Rain = 0
KPAD 251030Z 28013KT 14/10 A298 RMK A01 T01390102  RH  081%=      5-min Rain = 0
KPAD 251035Z 28013KT 14/10 A298 RMK A01 T01400102  RH  081%=      5-min Rain = 0
KPAD 251040Z 28011KT 14/10 A2981 RMK A01 T01390102  RH  081%=      5-min Rain = 0
KPAD 251045Z 28011KT 14/10 A2981 RMK A01 T01380101  RH  081%=      5-min Rain = 0
KPAD 251050Z 28011KT 14/10 A2981 RMK A01 T01370101  RH  082%=      5-min Rain = 0
KPAD 251055Z 28010KT 14/10 A2981 RMK A01 T01370101  RH  082%=      5-min Rain = 0
KPAD 251100Z 28009KT 14/10 A2981 RMK A01 T01360101  RH  082%=      5-min Rain = 0
KPAD 251105Z 28010KT 14/10 A2981 RMK A01 T01360101  RH  082%=      5-min Rain = 0
KPAD 251110Z 28010KT 14/10 A2981 RMK A01 T01350100  RH  082%=      5-min Rain = 0
KPAD 251115Z 28009KT 13/10 A2981 RMK A01 T01340100  RH  082%=      5-min Rain = 0
KPAD 251120Z 28010KT 13/10 A2982 RMK A01 T01330100  RH  083%=      5-min Rain = 0
KPAD 251125Z 27011KT 13/10 A2982 RMK A01 T01320100  RH  084%=      5-min Rain = 0
KPAD 251130Z 27010KT 13/10 A2982 RMK A01 T01320100  RH  083%=      5-min Rain = 0
KPAD 251135Z 28011KT 13/10 A2982 RMK A01 T01320100  RH  083%=      5-min Rain = 0
KPAD 251140Z 28011KT 13/10 A2982 RMK A01 T01330100  RH  083%=      5-min Rain = 0
KPAD 251145Z 28012KT 13/10 A2982 RMK A01 T01330100  RH  083%=      5-min Rain = 0
KPAD 251150Z 28012KT 13/10 A2982 RMK A01 T01330100  RH  083%=      5-min Rain = 0
KPAD 251155Z 28012KT 13/10 A2983 RMK A01 T01330100  RH  083%=      5-min Rain = 0
KPAD 251200Z 28011KT 13/10 A2983 RMK A01 T01340099  RH  082%=      5-min Rain = 0
KPAD 251205Z 28011KT 13/10 A2983 RMK A01 T01340099  RH  082%=      5-min Rain = 0
KPAD 251210Z 28012KT 13/10 A2983 RMK A01 T01340099  RH  082%=      5-min Rain = 0
KPAD 251215Z 28011KT 13/10 A2984 RMK A01 T01340099  RH  082%=      5-min Rain = 0
KPAD 251220Z 28010KT 14/10 A2984 RMK A01 T01350099  RH  081%=      5-min Rain = 0
KPAD 251225Z 28010KT 13/10 A2984 RMK A01 T01340099  RH  082%=      5-min Rain = 0
KPAD 251230Z 28010KT 14/10 A2984 RMK A01 T01350099  RH  081%=      5-min Rain = 0
KPAD 251235Z 28009KT 14/10 A2984 RMK A01 T01380100  RH  080%=      5-min Rain = 0
KPAD 251240Z 28009KT 14/10 A2984 RMK A01 T01410100  RH  079%=      5-min Rain = 0
KPAD 251245Z 28010KT 15/10 A2985 RMK A01 T01450101  RH  077%=      5-min Rain = 0
KPAD 251250Z 28010KT 15/10 A2985 RMK A01 T01480101  RH  076%=      5-min Rain = 0
KPAD 251255Z 28009KT 15/10 A2985 RMK A01 T01510102  RH  075%=      5-min Rain = 0
KPAD 251300Z 28009KT 15/10 A2985 RMK A01 T01540102  RH  074%=      5-min Rain = 0
KPAD 251305Z 28009KT 16/10 A2986 RMK A01 T01570102  RH  072%=      5-min Rain = 0
KPAD 251310Z 28009KT 16/10 A2986 RMK A01 T01590103  RH  072%=      5-min Rain = 0
KPAD 251315Z 28009KT 16/10 A2986 RMK A01 T01600104  RH  072%=      5-min Rain = 0
KPAD 251320Z 28010KT 16/10 A2986 RMK A01 T01630104  RH  071%=      5-min Rain = 0
KPAD 251325Z 28010KT 17/11 A2986 RMK A01 T01650105  RH  070%=      5-min Rain = 0
KPAD 251330Z 28010KT 17/10 A2986 RMK A01 T01680104  RH  068%=      5-min Rain = 0
KPAD 251335Z 28011KT 17/10 A2986 RMK A01 T01700104  RH  068%=      5-min Rain = 0
KPAD 251340Z 28011KT 17/11 A2986 RMK A01 T01710105  RH  067%=      5-min Rain = 0
KPAD 251345Z 28012KT 17/11 A2987 RMK A01 T01740105  RH  066%=      5-min Rain = 0
KPAD 251350Z 28012KT 18/10 A2987 RMK A01 T01770104  RH  065%=      5-min Rain = 0
KPAD 251355Z 29012KT 18/11 A2987 RMK A01 T01800106  RH  064%=      5-min Rain = 0
KPAD 251400Z 29011KT 18/11 A2987 RMK A01 T01830108  RH  064%=      5-min Rain = 0
KPAD 251405Z 29011KT 19/11 A2987 RMK A01 T01850110  RH  064%=      5-min Rain = 0
KPAD 251410Z 29010KT 19/11 A2987 RMK A01 T01880112  RH  064%=      5-min Rain = 0
KPAD 251415Z 30012KT 19/11 A2987 RMK A01 T01900112  RH  063%=      5-min Rain = 0
KPAD 251420Z 30011KT 19/12 A2987 RMK A01 T01920115  RH  063%=      5-min Rain = 0
KPAD 251425Z 30011KT 20/12 A2987 RMK A01 T01950115  RH  062%=      5-min Rain = 0
KPAD 251430Z 30011KT 20/12 A2987 RMK A01 T01970116  RH  062%=      5-min Rain = 0
KPAD 251435Z 30011KT 20/12 A2987 RMK A01 T01990117  RH  061%=      5-min Rain = 0
KPAD 251445Z 30010KT 20/12 A2988 RMK A01 T02030121  RH  062%=      5-min Rain = 0
KPAD 251450Z 30011KT 21/12 A2988 RMK A01 T02050120  RH  060%=      5-min Rain = 0
KPAD 251455Z 30010KT 21/12 A2988 RMK A01 T02080123  RH  060%=      5-min Rain = 0
KPAD 251500Z 31008KT 21/13 A2989 RMK A01 T02120127  RH  061%=      5-min Rain = 0
KPAD 251505Z 30009KT 21/13 A2989 RMK A01 T02130126  RH  060%=      5-min Rain = 0
KPAD 251510Z 31008KT 22/13 A2989 RMK A01 T02150126  RH  059%=      5-min Rain = 0
KPAD 251515Z 30008KT 22/13 A2989 RMK A01 T02180128  RH  059%=      5-min Rain = 0
KPAD 251520Z 31007KT 22/13 A2989 RMK A01 T02220127  RH  057%=      5-min Rain = 0
KPAD 251525Z 31007KT 22/13 A2989 RMK A01 T02240129  RH  057%=      5-min Rain = 0
KPAD 251530Z 31007KT 23/13 A2989 RMK A01 T02270128  RH  056%=      5-min Rain = 0
KPAD 251540Z 32005KT 23/13 A2989 RMK A01 T02310125  RH  053%=      5-min Rain = 0
KPAD 251545Z 31006KT 23/12 A2989 RMK A01 T02330119  RH  051%=      5-min Rain = 0
KPAD 251550Z 32005KT 24/12 A299 RMK A01 T02350122  RH  051%=      5-min Rain = 0
KPAD 251555Z 33005KT 24/12 A299 RMK A01 T02370123  RH  051%=      5-min Rain = 0
KPAD 251600Z 33006KT 24/12 A299 RMK A01 T02410118  RH  048%=      5-min Rain = 0
KPAD 251605Z 35007KT 24/10 A299 RMK A01 T02410103  RH  043%=      5-min Rain = 0
KPAD 251610Z 01005KT 24/09 A299 RMK A01 T02430085  RH  038%=      5-min Rain = 0
KPAD 251615Z 02005KT 25/09 A2991 RMK A01 T02470093  RH  039%=      5-min Rain = 0
KPAD 251620Z 01005G10KT 25/10 A2991 RMK A01 T02480099  RH  040%=      5-min Rain = 0
KPAD 251625Z 02005G10KT 25/10 A2991 RMK A01 T02480095  RH  039%=      5-min Rain = 0
KPAD 251630Z 00006KT 25/09 A2991 RMK A01 T02480093  RH  039%=      5-min Rain = 0
KPAD 251635Z 03006KT 25/09 A2991 RMK A01 T02520088  RH  036%=      5-min Rain = 0
KPAD 251640Z 04007KT 25/09 A2991 RMK A01 T02530088  RH  036%=      5-min Rain = 0
KPAD 251645Z 04006KT 25/09 A2991 RMK A01 T02510086  RH  036%=      5-min Rain = 0
KPAD 251650Z 05006KT 25/10 A2992 RMK A01 T02540097  RH  038%=      5-min Rain = 0
KPAD 251655Z 03005G11KT 25/09 A2992 RMK A01 T02520091  RH  037%=      5-min Rain = 0
KPAD 251700Z 05005KT 25/10 A2992 RMK A01 T02500095  RH  039%=      5-min Rain = 0
KPAD 251705Z 04007G12KT 25/10 A2992 RMK A01 T02530102  RH  040%=      5-min Rain = 0
KPAD 251710Z 05007KT 25/09 A2993 RMK A01 T02540094  RH  038%=      5-min Rain = 0
KPAD 251715Z 05007KT 26/09 A2993 RMK A01 T02550094  RH  037%=      5-min Rain = 0
KPAD 251720Z 05007KT 26/10 A2993 RMK A01 T02560095  RH  038%=      5-min Rain = 0
KPAD 251725Z 06005KT 26/09 A2993 RMK A01 T02550089  RH  036%=      5-min Rain = 0
KPAD 251730Z 03005KT 26/10 A2992 RMK A01 T02550096  RH  038%=      5-min Rain = 0
KPAD 251735Z 05005KT 26/09 A2992 RMK A01 T02550093  RH  037%=      5-min Rain = 0
KPAD 251740Z 05005KT 26/09 A2992 RMK A01 T02560093  RH  037%=      5-min Rain = 0
KPAD 251745Z 04005KT 26/09 A2992 RMK A01 T02580091  RH  036%=      5-min Rain = 0
KPAD 251750Z 02005KT 26/09 A2992 RMK A01 T02570092  RH  036%=      5-min Rain = 0
KPAD 251755Z 04006G12KT 26/09 A2992 RMK A01 T02560093  RH  037%=      5-min Rain = 0
KPAD 251800Z 04008KT 26/09 A2992 RMK A01 T02590093  RH  036%=      5-min Rain = 0
KPAD 251805Z 03008KT 26/10 A2992 RMK A01 T02610097  RH  037%=      5-min Rain = 0
KPAD 251810Z 02007KT 26/09 A2993 RMK A01 T02610091  RH  035%=      5-min Rain = 0
KPAD 251815Z 03005KT 26/10 A2993 RMK A01 T02610095  RH  036%=      5-min Rain = 0
KPAD 251820Z 00004KT 26/10 A2993 RMK A01 T02620097  RH  036%=      5-min Rain = 0
KPAD 251825Z 02005KT 27/10 A2993 RMK A01 T02660097  RH  036%=      5-min Rain = 0
KPAD 251830Z 01006KT 27/09 A2993 RMK A01 T02680087  RH  033%=      5-min Rain = 0
KPAD 251835Z 01007KT 27/09 A2993 RMK A01 T02670086  RH  033%=      5-min Rain = 0
KPAD 251840Z 01007G12KT 27/08 A2993 RMK A01 T02650082  RH  032%=      5-min Rain = 0
KPAD 251845Z 36007KT 27/09 A2993 RMK A01 T02660087  RH  033%=      5-min Rain = 0
KPAD 251850Z 02008G13KT 27/09 A2994 RMK A01 T02690091  RH  034%=      5-min Rain = 0
KPAD 251855Z 01007G12KT 27/09 A2994 RMK A01 T02680088  RH  033%=      5-min Rain = 0
KPAD 251900Z 02009G16KT 27/09 A2994 RMK A01 T02680090  RH  034%=      5-min Rain = 0
KPAD 251905Z 02009KT 27/09 A2994 RMK A01 T02680086  RH  033%=      5-min Rain = 0
KPAD 251910Z 02009G14KT 27/09 A2994 RMK A01 T02670087  RH  033%=      5-min Rain = 0
KPAD 251915Z 02010G15KT 27/09 A2994 RMK A01 T02700092  RH  034%=      5-min Rain = 0
KPAD 251920Z 01007G12KT 27/09 A2994 RMK A01 T02700091  RH  033%=      5-min Rain = 0
KPAD 251925Z 02008G13KT 27/09 A2995 RMK A01 T02690094  RH  034%=      5-min Rain = 0
KPAD 251930Z 02010KT 27/09 A2995 RMK A01 T02710094  RH  034%=      5-min Rain = 0
KPAD 251935Z 03007KT 27/09 A2995 RMK A01 T02690090  RH  033%=      5-min Rain = 0
KPAD 251940Z 04008KT 27/10 A2995 RMK A01 T02710099  RH  035%=      5-min Rain = 0
KPAD 251945Z 02009KT 27/09 A2995 RMK A01 T02740090  RH  032%=      5-min Rain = 0
KPAD 251950Z 02009G14KT 27/09 A2995 RMK A01 T02730093  RH  033%=      5-min Rain = 0
KPAD 251955Z 02010G15KT 27/09 A2995 RMK A01 T02720088  RH  032%=      5-min Rain = 0
KPAD 252000Z 02008KT 27/09 A2995 RMK A01 T02740092  RH  033%=      5-min Rain = 0
KPAD 252005Z 36008KT 27/10 A2996 RMK A01 T02740095  RH  033%=      5-min Rain = 0
KPAD 252010Z 01007G12KT 27/09 A2996 RMK A01 T02740092  RH  033%=      5-min Rain = 0
KPAD 252015Z 33007G12KT 28/10 A2996 RMK A01 T02750099  RH  034%=      5-min Rain = 0
KPAD 252020Z 02007KT 28/09 A2996 RMK A01 T02780094  RH  033%=      5-min Rain = 0
KPAD 252025Z 00007KT 28/09 A2996 RMK A01 T02760090  RH  032%=      5-min Rain = 0
KPAD 252030Z 03004G10KT 28/09 A2996 RMK A01 T02770094  RH  033%=      5-min Rain = 0
KPAD 252035Z 36008G14KT 28/10 A2996 RMK A01 T02810099  RH  033%=      5-min Rain = 0
KPAD 252040Z 35009G14KT 28/10 A2996 RMK A01 T02810095  RH  032%=      5-min Rain = 0
KPAD 252045Z 35008KT 28/10 A2996 RMK A01 T02780096  RH  033%=      5-min Rain = 0
KPAD 252050Z 03007KT 28/10 A2996 RMK A01 T02800096  RH  033%=      5-min Rain = 0
KPAD 252055Z 03007KT 28/10 A2996 RMK A01 T02810098  RH  033%=      5-min Rain = 0
KPAD 252100Z 03005KT 28/09 A2996 RMK A01 T02760090  RH  032%=      5-min Rain = 0
KPAD 252105Z 02009KT 27/10 A2996 RMK A01 T02650099  RH  036%=      5-min Rain = 0
KPAD 252110Z 01009KT 27/11 A2996 RMK A01 T02650105  RH  038%=      5-min Rain = 0
KPAD 252115Z 01009KT 28/11 A2996 RMK A01 T02790109  RH  036%=      5-min Rain = 0
KPAD 252120Z 01009KT 28/10 A2996 RMK A01 T02830103  RH  034%=      5-min Rain = 0
KPAD 252125Z 00009KT 27/10 A2996 RMK A01 T02730099  RH  035%=      5-min Rain = 0
KPAD 252130Z 35012G19KT 27/12 A2996 RMK A01 T02710117  RH  040%=      5-min Rain = 0
KPAD 252135Z 00016G21KT 27/12 A2996 RMK A01 T02690115  RH  040%=      5-min Rain = 0
KPAD 252140Z 36016G23KT 27/12 A2996 RMK A01 T02660119  RH  042%=      5-min Rain = 0
KPAD 252145Z 00017G22KT 27/11 A2996 RMK A01 T02720114  RH  039%=      5-min Rain = 0
KPAD 252150Z 00016G21KT 27/12 A2996 RMK A01 T02730115  RH  039%=      5-min Rain = 0
KPAD 252155Z 00017G22KT 27/12 A2997 RMK A01 T02740118  RH  040%=      5-min Rain = 0
KPAD 252200Z 01017G22KT 27/11 A2997 RMK A01 T02700112  RH  039%=      5-min Rain = 0
KPAD 252205Z 00018KT 27/11 A2997 RMK A01 T02680111  RH  039%=      5-min Rain = 0
KPAD 252210Z 01017G23KT 27/12 A2998 RMK A01 T02680115  RH  040%=      5-min Rain = 0
KPAD 252215Z 01016G21KT 27/11 A2998 RMK A01 T02660114  RH  040%=      5-min Rain = 0
KPAD 252220Z 01017G23KT 26/11 A2998 RMK A01 T02630109  RH  039%=      5-min Rain = 0
KPAD 252225Z 01017KT 26/11 A2999 RMK A01 T02630109  RH  039%=      5-min Rain = 0
KPAD 252230Z 00015G20KT 26/11 A2999 RMK A01 T02640108  RH  039%=      5-min Rain = 0
KPAD 252235Z 01015KT 26/11 A2999 RMK A01 T02640106  RH  038%=      5-min Rain = 0
KPAD 252240Z 00015G21KT 26/11 A30 RMK A01 T02630105  RH  038%=      5-min Rain = 0
KPAD 252245Z 01017G22KT 26/10 A30 RMK A01 T02620102  RH  038%=      5-min Rain = 0
KPAD 252250Z 02016KT 26/10 A30 RMK A01 T02610099  RH  037%=      5-min Rain = 0
KPAD 252255Z 01016G22KT 26/10 A30 RMK A01 T02600103  RH  038%=      5-min Rain = 0
KPAD 252300Z 01016G21KT 26/10 A30 RMK A01 T02600102  RH  038%=      5-min Rain = 0
KPAD 252305Z 00017G23KT 26/10 A30 RMK A01 T02590102  RH  039%=      5-min Rain = 0
KPAD 252310Z 01019KT 26/10 A30 RMK A01 T02570100  RH  038%=      5-min Rain = 0
KPAD 252315Z 01018G23KT 26/10 A30 RMK A01 T02550098  RH  038%=      5-min Rain = 0
KPAD 252320Z 01017G22KT 26/10 A3001 RMK A01 T02550100  RH  039%=      5-min Rain = 0
KPAD 252325Z 01015G20KT 25/10 A3001 RMK A01 T02540099  RH  039%=      5-min Rain = 0
KPAD 252330Z 01016G21KT 25/10 A3001 RMK A01 T02540098  RH  039%=      5-min Rain = 0
KPAD 252335Z 01014KT 25/10 A3001 RMK A01 T02530102  RH  040%=      5-min Rain = 0
KPAD 252340Z 02014KT 25/10 A3001 RMK A01 T02520102  RH  040%=      5-min Rain = 0
KPAD 252345Z 02013G18KT 25/11 A3001 RMK A01 T02510105  RH  041%=      5-min Rain = 0
KPAD 252350Z 01015KT 25/10 A3001 RMK A01 T02490104  RH  041%=      5-min Rain = 0
KPAD 252355Z 01014KT 25/11 A3002 RMK A01 T02480105  RH  042%=      5-min Rain = 0
KPAD 260000Z 02014KT 25/11 A3002 RMK A01 T02470108  RH  043%=      5-min Rain = 0
KPAD 260005Z 03014KT 25/11 A3002 RMK A01 T02450107  RH  043%=      5-min Rain = 0
KPAD 260010Z 02014G20KT 24/11 A3002 RMK A01 T02440108  RH  044%=      5-min Rain = 0
KPAD 260015Z 02013G18KT 24/11 A3002 RMK A01 T02420108  RH  044%=      5-min Rain = 0
KPAD 260020Z 02015KT 24/11 A3002 RMK A01 T02400105  RH  044%=      5-min Rain = 0
KPAD 260025Z 02012KT 24/11 A3002 RMK A01 T02380107  RH  045%=      5-min Rain = 0
KPAD 260030Z 02013G18KT 24/11 A3002 RMK A01 T02370105  RH  045%=      5-min Rain = 0
KPAD 260035Z 02010KT 24/11 A3003 RMK A01 T02350108  RH  046%=      5-min Rain = 0
KPAD 260040Z 02009G14KT 23/11 A3003 RMK A01 T02320111  RH  048%=      5-min Rain = 0
KPAD 260045Z 03010KT 23/11 A3003 RMK A01 T02310112  RH  049%=      5-min Rain = 0
KPAD 260050Z 03009KT 23/12 A3003 RMK A01 T02280115  RH  051%=      5-min Rain = 0
KPAD 260055Z 02009KT 22/12 A3003 RMK A01 T02240116  RH  052%=      5-min Rain = 0
KPAD 260100Z 03009KT 22/12 A3003 RMK A01 T02210117  RH  053%=      5-min Rain = 0
KPAD 260105Z 03009KT 22/12 A3004 RMK A01 T02180118  RH  055%=      5-min Rain = 0
KPAD 260110Z 02009KT 22/12 A3004 RMK A01 T02160118  RH  056%=      5-min Rain = 0
KPAD 260115Z 02010KT 21/12 A3004 RMK A01 T02120117  RH  056%=      5-min Rain = 0
KPAD 260120Z 03011KT 21/11 A3005 RMK A01 T02110114  RH  056%=      5-min Rain = 0
KPAD 260125Z 03010KT 21/12 A3005 RMK A01 T02100115  RH  056%=      5-min Rain = 0
KPAD 260130Z 03010KT 21/11 A3005 RMK A01 T02060114  RH  058%=      5-min Rain = 0
KPAD 260135Z 03010KT 21/11 A3005 RMK A01 T02050113  RH  057%=      5-min Rain = 0
KPAD 260140Z 03009KT 20/11 A3006 RMK A01 T02030113  RH  058%=      5-min Rain = 0
KPAD 260145Z 03007KT 20/11 A3006 RMK A01 T02000113  RH  059%=      5-min Rain = 0
KPAD 260150Z 02008KT 20/11 A3006 RMK A01 T01960114  RH  061%=      5-min Rain = 0
KPAD 260155Z 02008KT 19/11 A3007 RMK A01 T01930114  RH  062%=      5-min Rain = 0
KPAD 260200Z 02007KT 19/12 A3007 RMK A01 T01880115  RH  065%=      5-min Rain = 0
KPAD 260205Z 02007KT 18/12 A3007 RMK A01 T01830115  RH  067%=      5-min Rain = 0
KPAD 260210Z 02007KT 18/12 A3007 RMK A01 T01790115  RH  068%=      5-min Rain = 0
KPAD 260215Z 02008KT 18/12 A3008 RMK A01 T01780115  RH  069%=      5-min Rain = 0
KPAD 260220Z 03008KT 18/12 A3008 RMK A01 T01770115  RH  070%=      5-min Rain = 0
KPAD 260225Z 03007KT 18/12 A3009 RMK A01 T01760116  RH  070%=      5-min Rain = 0
KPAD 260230Z 03007KT 17/12 A3009 RMK A01 T01740116  RH  071%=      5-min Rain = 0
KPAD 260235Z 02007KT 17/12 A3009 RMK A01 T01720115  RH  072%=      5-min Rain = 0
KPAD 260240Z 02007KT 17/12 A301 RMK A01 T01700115  RH  073%=      5-min Rain = 0
KPAD 260245Z 02007KT 17/12 A301 RMK A01 T01690115  RH  073%=      5-min Rain = 0
KPAD 260250Z 02007KT 17/12 A301 RMK A01 T01660115  RH  074%=      5-min Rain = 0
KPAD 260255Z 02007KT 17/11 A3011 RMK A01 T01650114  RH  075%=      5-min Rain = 0
KPAD 260300Z 03006KT 16/11 A3011 RMK A01 T01640114  RH  075%=      5-min Rain = 0
KPAD 260305Z 03006KT 16/11 A3011 RMK A01 T01640114  RH  075%=      5-min Rain = 0
KPAD 260310Z 02007KT 16/11 A3012 RMK A01 T01630113  RH  075%=      5-min Rain = 0
KPAD 260315Z 02007KT 16/11 A3012 RMK A01 T01620112  RH  075%=      5-min Rain = 0
KPAD 260320Z 02007KT 16/11 A3012 RMK A01 T01600112  RH  076%=      5-min Rain = 0
KPAD 260325Z 03007KT 16/11 A3012 RMK A01 T01590111  RH  076%=      5-min Rain = 0
KPAD 260330Z 03006KT 16/11 A3012 RMK A01 T01600111  RH  075%=      5-min Rain = 0
KPAD 260335Z 03006KT 16/11 A3013 RMK A01 T01600109  RH  074%=      5-min Rain = 0
KPAD 260340Z 03006KT 16/11 A3013 RMK A01 T01590108  RH  074%=      5-min Rain = 0
KPAD 260345Z 03006KT 16/11 A3013 RMK A01 T01590107  RH  074%=      5-min Rain = 0
KPAD 260350Z 03005KT 16/11 A3013 RMK A01 T01580106  RH  073%=      5-min Rain = 0
KPAD 260355Z 03006KT 16/11 A3014 RMK A01 T01580105  RH  073%=      5-min Rain = 0
KPAD 260400Z 04007KT 16/11 A3014 RMK A01 T01570105  RH  074%=      5-min Rain = 0
KPAD 260405Z 04007KT 16/11 A3014 RMK A01 T01560105  RH  074%=      5-min Rain = 0
KPAD 260410Z 04007KT 16/11 A3014 RMK A01 T01550105  RH  075%=      5-min Rain = 0
KPAD 260415Z 04007KT 15/11 A3014 RMK A01 T01540105  RH  075%=      5-min Rain = 0
KPAD 260420Z 04006KT 15/11 A3014 RMK A01 T01530105  RH  075%=      5-min Rain = 0
KPAD 260425Z 03006KT 15/10 A3014 RMK A01 T01520104  RH  076%=      5-min Rain = 0
KPAD 260430Z 03006KT 15/10 A3014 RMK A01 T01500104  RH  076%=      5-min Rain = 0
KPAD 260435Z 03006KT 15/10 A3014 RMK A01 T01490104  RH  077%=      5-min Rain = 0
KPAD 260440Z 03005KT 15/10 A3014 RMK A01 T01480104  RH  078%=      5-min Rain = 0
KPAD 260445Z 02004KT 15/10 A3014 RMK A01 T01480104  RH  078%=      5-min Rain = 0
KPAD 260450Z 02003KT 15/11 A3015 RMK A01 T01500105  RH  077%=      5-min Rain = 0
KPAD 260455Z 01003KT 15/11 A3015 RMK A01 T01510105  RH  077%=      5-min Rain = 0

Page generated in 0.009 seconds.